Bookmark and Share
Track history (hours):
 

Priwall

Last reported at 2014-Apr-19 06:28 UTC. Time now 2014-Apr-19 07:07 UTC.
Position N 51°43' W 002°28'.

Length 88 m; draft 5.8 m.

Type: Cargo ship. MMSI: 304739000.

NotesDate/timePositionNaut miles runAvg speedWind from/ knotsBaromVisibWave heightAir tempDewpointWater temp
2014-Apr-19 06:28N 51°43' W 002°28'0 0.0
2014-Apr-19 05:28N 51°43' W 002°28'0 0.0
2014-Apr-19 04:27N 51°43' W 002°28'0 0.0
2014-Apr-19 03:33N 51°43' W 002°28'0 0.0
2014-Apr-19 02:32N 51°43' W 002°28'0 0.0
2014-Apr-19 01:32N 51°43' W 002°28'0 0.0
2014-Apr-18 23:25N 51°43' W 002°28'0 0.0
2014-Apr-18 21:06N 51°43' W 002°28'0 0.0
2014-Apr-18 19:05N 51°43' W 002°29'0 0.0
2014-Apr-18 18:05N 51°43' W 002°28'0 0.0
2014-Apr-18 17:32N 51°43' W 002°28'0 0.0
2014-Apr-18 16:25N 51°43' W 002°28'0 0.0
2014-Apr-18 15:16N 51°43' W 002°28'0 0.0
2014-Apr-18 14:27N 51°43' W 002°28'0 0.0
2014-Apr-18 13:09N 51°43' W 002°28'0 0.0
2014-Apr-18 12:19N 51°43' W 002°28'0 0.0
2014-Apr-18 11:32N 51°43' W 002°28'0 0.4
2014-Apr-18 10:32N 51°43' W 002°29'0 0.1
2014-Apr-18 09:26N 51°43' W 002°29'6 6.5
2014-Apr-18 08:33N 51°39' W 002°36'1110.6
2014-Apr-18 07:33N 51°30' W 002°44'106 5.9
2014-Apr-17 13:33N 50°42' W 005°15'7 7.0
2014-Apr-17 12:33N 50°37' W 005°23'7 6.6
2014-Apr-17 11:33N 50°33' W 005°31'6 6.4
2014-Apr-17 10:33N 50°29' W 005°39'7 6.3
2014-Apr-17 09:24N 50°24' W 005°47'  
2014-Apr-13 16:09N 38°56' W 009°50'15 8.4
2014-Apr-13 14:23N 38°41' W 009°50'10 8.6
2014-Apr-13 13:10N 38°31' W 009°47'17 8.6
2014-Apr-13 11:14N 38°15' W 009°44'6 8.7
2014-Apr-13 10:32N 38°09' W 009°42'9 8.9
2014-Apr-13 09:33N 38°00' W 009°39'9 8.8
2014-Apr-13 08:31N 37°51' W 009°36'9 8.6
2014-Apr-13 07:31N 37°43' W 009°34'8 8.4
2014-Apr-13 06:33N 37°35' W 009°31'8 8.4
2014-Apr-13 05:33N 37°27' W 009°29'9 8.6
2014-Apr-13 04:33N 37°18' W 009°27'8 8.4
2014-Apr-13 03:33N 37°10' W 009°25'47 7.5
2014-Apr-12 21:20N 36°38' W 008°42'156 8.3
2014-Apr-12 02:33N 35°58' W 005°36'6 5.8
2014-Apr-12 01:33N 35°59' W 005°29'6 6.0
2014-Apr-12 00:33N 36°00' W 005°21'6 5.8
2014-Apr-11 23:33N 35°55' W 005°18'1 1.2
2014-Apr-11 22:33N 35°54' W 005°19'0 0.0
2014-Apr-11 21:33N 35°54' W 005°19'0 0.0
2014-Apr-11 20:33N 35°54' W 005°19'0 0.3
2014-Apr-11 19:33N 35°54' W 005°19'1 1.5
2014-Apr-11 18:33N 35°55' W 005°19'8 7.6
2014-Apr-11 17:30N 35°56' W 005°09'  
2014-Apr-09 11:17N 37°09' E 004°06'  

Dump ship's entire track history

sailing weather and tide predictions

Priwall — V2OX8 — position and weather